createdAt,value
2023-04-23T00:00:20.097Z,13.90
2023-04-23T00:02:50.720Z,13.90
2023-04-23T00:05:17.732Z,13.90
2023-04-23T00:07:44.474Z,13.90
2023-04-23T00:10:11.859Z,13.90
2023-04-23T00:12:38.886Z,13.80
2023-04-23T00:15:06.687Z,13.80
2023-04-23T00:17:33.308Z,13.80
2023-04-23T00:19:59.929Z,13.80
2023-04-23T00:22:26.468Z,13.80
2023-04-23T00:24:53.009Z,13.80
2023-04-23T00:27:19.603Z,13.80
2023-04-23T00:29:46.156Z,13.80
2023-04-23T00:32:12.789Z,13.80
2023-04-23T00:34:39.654Z,13.80
2023-04-23T00:37:06.477Z,13.80
2023-04-23T00:39:33.076Z,13.80
2023-04-23T00:41:59.840Z,13.70
2023-04-23T00:44:26.426Z,13.70
2023-04-23T00:46:54.664Z,13.70
2023-04-23T00:49:22.961Z,13.70
2023-04-23T00:51:49.516Z,13.70
2023-04-23T00:54:16.078Z,13.70
2023-04-23T00:56:43.022Z,13.60
2023-04-23T00:59:09.736Z,13.60
2023-04-23T01:01:36.426Z,13.60
2023-04-23T01:04:03.415Z,13.50
2023-04-23T01:06:30.415Z,13.40
2023-04-23T01:08:57.208Z,13.50
2023-04-23T01:11:23.956Z,13.40
2023-04-23T01:13:50.886Z,13.40
2023-04-23T01:16:17.610Z,13.40
2023-04-23T01:18:44.207Z,13.40
2023-04-23T01:21:12.244Z,13.40
2023-04-23T01:23:39.499Z,13.30
2023-04-23T01:26:06.311Z,13.30
2023-04-23T01:28:33.596Z,13.30
2023-04-23T01:31:00.673Z,13.30
2023-04-23T01:33:27.564Z,13.30
2023-04-23T01:35:55.673Z,13.30
2023-04-23T01:38:23.294Z,13.20
2023-04-23T01:40:49.887Z,13.20
2023-04-23T01:43:17.463Z,13.10
2023-04-23T01:45:44.189Z,13.10
2023-04-23T01:48:10.776Z,13.20
2023-04-23T01:50:37.641Z,13.10
2023-04-23T01:53:04.232Z,13.00
2023-04-23T01:55:31.741Z,13.10
2023-04-23T01:57:58.325Z,13.00
2023-04-23T02:00:24.898Z,13.00
2023-04-23T02:02:51.889Z,12.90
2023-04-23T02:05:19.540Z,12.90
2023-04-23T02:07:50.603Z,12.90
2023-04-23T02:10:17.491Z,12.90
2023-04-23T02:12:45.814Z,12.90
2023-04-23T02:15:13.147Z,12.80
2023-04-23T02:17:39.848Z,12.80
2023-04-23T02:20:08.692Z,12.90
2023-04-23T02:22:37.179Z,12.80
2023-04-23T02:25:04.072Z,12.90
2023-04-23T02:27:30.618Z,12.80
2023-04-23T02:29:57.183Z,12.80
2023-04-23T02:32:23.855Z,12.80
2023-04-23T02:34:50.400Z,12.80
2023-04-23T02:37:16.982Z,12.80
2023-04-23T02:39:43.588Z,12.70
2023-04-23T02:42:10.820Z,12.70
2023-04-23T02:44:37.395Z,12.60
2023-04-23T02:47:04.078Z,12.50
2023-04-23T02:49:30.633Z,12.50
2023-04-23T02:51:57.290Z,12.60
2023-04-23T02:54:23.908Z,12.60
2023-04-23T02:56:50.517Z,12.50
2023-04-23T02:59:17.069Z,12.50
2023-04-23T03:01:43.625Z,12.50
2023-04-23T03:04:10.444Z,12.50
2023-04-23T03:06:37.088Z,12.50
2023-04-23T03:09:04.189Z,12.50
2023-04-23T03:11:31.260Z,12.50
2023-04-23T03:13:57.834Z,12.50
2023-04-23T03:16:24.467Z,12.50
2023-04-23T03:18:51.047Z,12.40
2023-04-23T03:21:17.602Z,12.40
2023-04-23T03:23:44.202Z,12.40
2023-04-23T03:26:10.844Z,12.40
2023-04-23T03:28:37.426Z,12.50
2023-04-23T03:31:04.093Z,12.50
2023-04-23T03:33:30.719Z,12.50
2023-04-23T03:35:57.258Z,12.50
2023-04-23T03:38:23.835Z,12.40
2023-04-23T03:40:50.406Z,12.30
2023-04-23T03:43:16.944Z,12.30
2023-04-23T03:45:43.547Z,12.30
2023-04-23T03:48:10.140Z,12.30
2023-04-23T03:50:36.702Z,12.30
2023-04-23T03:53:03.281Z,12.30
2023-04-23T03:55:29.844Z,12.40
2023-04-23T03:57:56.458Z,12.30
2023-04-23T04:00:23.028Z,12.40
2023-04-23T04:02:49.691Z,12.30
2023-04-23T04:05:16.423Z,12.30
2023-04-23T04:07:43.047Z,12.20
2023-04-23T04:10:09.899Z,12.30
2023-04-23T04:12:36.476Z,12.30
2023-04-23T04:15:04.439Z,12.30
2023-04-23T04:17:31.061Z,12.30
2023-04-23T04:19:57.670Z,12.30
2023-04-23T04:22:24.316Z,12.30
2023-04-23T04:24:50.862Z,12.30
2023-04-23T04:27:17.495Z,12.30
2023-04-23T04:29:44.068Z,12.20
2023-04-23T04:32:10.715Z,12.30
2023-04-23T04:34:37.394Z,12.20
2023-04-23T04:37:04.266Z,12.10
2023-04-23T04:39:30.896Z,12.10
2023-04-23T04:41:57.536Z,12.10
2023-04-23T04:44:24.085Z,12.10
2023-04-23T04:46:50.672Z,12.10
2023-04-23T04:49:17.272Z,12.00
2023-04-23T04:51:43.837Z,11.90
2023-04-23T04:54:10.405Z,11.90
2023-04-23T04:56:36.971Z,11.90
2023-04-23T04:59:03.620Z,11.90
2023-04-23T05:01:30.872Z,11.90
2023-04-23T05:03:58.124Z,11.80
2023-04-23T05:06:25.067Z,11.70
2023-04-23T05:08:51.638Z,11.80
2023-04-23T05:11:18.843Z,11.80
2023-04-23T05:13:45.851Z,11.80
2023-04-23T05:16:12.783Z,11.80
2023-04-23T05:18:40.376Z,11.80
2023-04-23T05:21:07.582Z,11.80
2023-04-23T05:23:35.219Z,11.70
2023-04-23T05:26:01.950Z,11.70
2023-04-23T05:28:28.545Z,11.70
2023-04-23T05:30:55.185Z,11.70
2023-04-23T05:33:21.752Z,11.70
2023-04-23T05:35:48.342Z,11.70
2023-04-23T05:38:14.927Z,11.70
2023-04-23T05:40:41.542Z,11.70
2023-04-23T05:43:08.133Z,11.70
2023-04-23T05:45:34.686Z,11.70
2023-04-23T05:48:01.330Z,11.70
2023-04-23T05:50:28.045Z,11.80
2023-04-23T05:52:54.664Z,11.80
2023-04-23T05:55:21.705Z,11.80
2023-04-23T05:57:48.244Z,11.80
2023-04-23T06:00:15.277Z,11.70
2023-04-23T06:02:42.462Z,11.70
2023-04-23T06:05:09.963Z,11.70
2023-04-23T06:07:36.753Z,11.60
2023-04-23T06:10:04.980Z,11.70
2023-04-23T06:12:31.795Z,11.70
2023-04-23T06:14:58.364Z,11.60
2023-04-23T06:17:24.916Z,11.60
2023-04-23T06:19:51.476Z,11.60
2023-04-23T06:22:17.995Z,11.60
2023-04-23T06:24:44.606Z,11.60
2023-04-23T06:27:11.320Z,11.60
2023-04-23T06:29:37.843Z,11.60
2023-04-23T06:32:04.556Z,11.70
2023-04-23T06:34:31.135Z,11.70
2023-04-23T06:36:58.179Z,11.70
2023-04-23T06:39:24.772Z,11.70
2023-04-23T06:41:51.364Z,11.70
2023-04-23T06:44:17.905Z,11.70
2023-04-23T06:46:44.517Z,11.70
2023-04-23T06:49:11.088Z,11.70
2023-04-23T06:51:37.678Z,11.70
2023-04-23T06:54:04.395Z,11.70
2023-04-23T06:56:31.005Z,11.70
2023-04-23T06:58:57.561Z,11.70
2023-04-23T07:01:24.662Z,11.70
2023-04-23T07:03:51.342Z,11.80
2023-04-23T07:06:18.017Z,11.70
2023-04-23T07:08:44.574Z,11.80
2023-04-23T07:11:11.328Z,11.80
2023-04-23T07:13:40.006Z,11.80
2023-04-23T07:16:06.837Z,11.90
2023-04-23T07:18:33.459Z,11.90
2023-04-23T07:21:00.101Z,11.90
2023-04-23T07:23:26.730Z,11.90
2023-04-23T07:25:53.337Z,11.90
2023-04-23T07:28:19.900Z,11.80
2023-04-23T07:30:46.474Z,11.80
2023-04-23T07:33:13.109Z,11.80
2023-04-23T07:35:39.715Z,11.80
2023-04-23T07:38:06.319Z,11.80
2023-04-23T07:40:32.969Z,11.80
2023-04-23T07:42:59.692Z,11.80
2023-04-23T07:45:26.356Z,11.80
2023-04-23T07:47:53.123Z,11.80
2023-04-23T07:50:19.816Z,11.80
2023-04-23T07:52:46.966Z,11.70
2023-04-23T07:55:13.619Z,11.70
2023-04-23T07:57:40.252Z,11.80
2023-04-23T08:00:07.430Z,11.80
2023-04-23T08:02:34.067Z,11.90
2023-04-23T08:05:00.823Z,11.80
2023-04-23T08:07:32.032Z,11.80
2023-04-23T08:09:59.136Z,11.90
2023-04-23T08:12:26.922Z,11.90
2023-04-23T08:14:53.520Z,12.00
2023-04-23T08:17:20.168Z,12.10
2023-04-23T08:19:47.263Z,12.10
2023-04-23T08:22:13.903Z,12.20
2023-04-23T08:24:40.483Z,12.20
2023-04-23T08:27:07.022Z,12.20
2023-04-23T08:29:33.578Z,12.20
2023-04-23T08:32:00.234Z,12.30
2023-04-23T08:34:26.871Z,12.30
2023-04-23T08:36:53.919Z,12.30
2023-04-23T08:39:20.483Z,12.40
2023-04-23T08:41:53.915Z,12.50
2023-04-23T08:44:24.226Z,12.50
2023-04-23T08:46:52.732Z,12.60
2023-04-23T08:49:19.699Z,12.70
2023-04-23T08:51:50.231Z,12.70
2023-04-23T08:54:26.390Z,12.70
2023-04-23T08:56:58.786Z,12.80
2023-04-23T08:59:26.355Z,12.80
2023-04-23T09:01:53.931Z,12.90
2023-04-23T09:04:21.544Z,12.90
2023-04-23T09:06:48.172Z,13.00
2023-04-23T09:09:16.667Z,13.00
2023-04-23T09:11:43.878Z,13.10
2023-04-23T09:14:12.407Z,13.20
2023-04-23T09:16:39.178Z,13.20
2023-04-23T09:19:07.631Z,13.30
2023-04-23T09:21:34.615Z,13.50
2023-04-23T09:24:05.029Z,13.50
2023-04-23T09:26:31.605Z,13.60
2023-04-23T09:28:58.156Z,13.80
2023-04-23T09:31:24.714Z,13.80
2023-04-23T09:33:54.696Z,13.80
2023-04-23T09:36:22.893Z,13.90
2023-04-23T09:38:50.621Z,13.90
2023-04-23T09:41:28.476Z,13.90
2023-04-23T09:43:56.633Z,14.00
2023-04-23T09:46:43.002Z,14.00
2023-04-23T09:49:11.958Z,14.20
2023-04-23T09:51:43.892Z,14.40
2023-04-23T09:54:15.565Z,14.40
2023-04-23T09:56:44.742Z,14.40
2023-04-23T09:59:46.781Z,14.60
2023-04-23T10:02:15.482Z,14.80
2023-04-23T10:04:42.507Z,15.10
2023-04-23T10:07:19.044Z,15.10
2023-04-23T10:09:47.730Z,15.20
2023-04-23T10:14:45.165Z,15.10
2023-04-23T10:17:12.441Z,15.10
2023-04-23T10:19:41.218Z,15.10
2023-04-23T10:24:49.615Z,15.00
2023-04-23T10:27:27.004Z,15.10
2023-04-23T10:30:01.081Z,15.20
2023-04-23T10:32:28.420Z,15.20
2023-04-23T10:34:55.203Z,15.30
2023-04-23T10:37:22.264Z,15.50
2023-04-23T10:39:53.758Z,15.60
2023-04-23T10:42:21.626Z,15.70
2023-04-23T10:47:23.116Z,16.00
2023-04-23T10:49:49.720Z,16.20
2023-04-23T10:52:20.336Z,16.40
2023-04-23T10:54:50.486Z,16.60
2023-04-23T10:57:17.096Z,16.60
2023-04-23T10:59:54.956Z,16.50
2023-04-23T11:02:24.377Z,16.40
2023-04-23T11:04:55.921Z,16.40
2023-04-23T11:07:29.759Z,16.40
2023-04-23T11:09:59.971Z,16.30
2023-04-23T11:12:26.492Z,16.40
2023-04-23T11:14:54.697Z,16.40
2023-04-23T11:17:31.057Z,16.50
2023-04-23T11:20:19.560Z,16.60
2023-04-23T11:22:46.948Z,16.50
2023-04-23T11:25:24.102Z,16.40
2023-04-23T11:27:52.212Z,16.20
2023-04-23T11:30:22.623Z,16.30
2023-04-23T11:32:51.116Z,16.30
2023-04-23T11:35:25.430Z,16.30
2023-04-23T11:37:51.988Z,16.40
2023-04-23T11:40:19.149Z,16.40
2023-04-23T11:42:45.706Z,16.50
2023-04-23T11:45:28.984Z,16.70
2023-04-23T11:47:57.470Z,16.70
2023-04-23T11:50:26.754Z,16.50
2023-04-23T11:52:54.116Z,16.30
2023-04-23T11:55:22.072Z,16.30
2023-04-23T11:57:50.636Z,16.40
2023-04-23T12:00:22.417Z,16.40
2023-04-23T12:02:59.681Z,16.50
2023-04-23T12:05:31.101Z,16.60
2023-04-23T12:08:18.990Z,16.50
2023-04-23T12:10:52.321Z,16.90
2023-04-23T12:13:26.604Z,17.10
2023-04-23T12:15:56.089Z,17.30
2023-04-23T12:18:28.945Z,17.40
2023-04-23T12:20:55.989Z,17.60
2023-04-23T12:23:28.600Z,17.70
2023-04-23T12:25:55.246Z,17.60
2023-04-23T12:28:25.683Z,17.70
2023-04-23T12:30:52.373Z,17.90
2023-04-23T12:33:20.527Z,18.00
2023-04-23T12:35:51.184Z,18.00
2023-04-23T12:38:26.080Z,17.70
2023-04-23T12:40:54.417Z,17.50
2023-04-23T12:43:21.135Z,17.50
2023-04-23T12:45:48.412Z,17.60
2023-04-23T12:48:15.102Z,17.40
2023-04-23T12:50:42.015Z,17.30
2023-04-23T12:53:08.647Z,17.30
2023-04-23T12:55:35.188Z,17.40
2023-04-23T12:58:01.764Z,17.30
2023-04-23T13:00:28.439Z,17.50
2023-04-23T13:02:55.419Z,17.50
2023-04-23T13:05:22.380Z,17.60
2023-04-23T13:07:48.988Z,17.60
2023-04-23T13:10:15.621Z,17.80
2023-04-23T13:12:42.995Z,18.10
2023-04-23T13:15:09.943Z,18.20
2023-04-23T13:17:36.961Z,18.40
2023-04-23T13:20:03.811Z,18.50
2023-04-23T13:22:30.454Z,18.50
2023-04-23T13:24:57.736Z,18.60
2023-04-23T13:27:25.897Z,18.50
2023-04-23T13:29:52.516Z,18.30
2023-04-23T13:32:21.222Z,18.30
2023-04-23T13:34:49.465Z,18.30
2023-04-23T13:37:16.053Z,18.40
2023-04-23T13:39:43.026Z,18.50
2023-04-23T13:42:10.440Z,18.60
2023-04-23T13:44:37.171Z,18.80
2023-04-23T13:47:03.816Z,18.80
2023-04-23T13:49:30.377Z,18.80
2023-04-23T13:51:56.951Z,19.00
2023-04-23T13:54:23.519Z,19.10
2023-04-23T13:56:50.116Z,19.10
2023-04-23T13:59:19.361Z,19.20
2023-04-23T14:01:48.117Z,19.10
2023-04-23T14:04:14.716Z,19.20
2023-04-23T14:06:41.611Z,19.40
2023-04-23T14:09:08.307Z,19.50
2023-04-23T14:11:34.940Z,19.40
2023-04-23T14:14:01.623Z,19.10
2023-04-23T14:16:28.337Z,19.10
2023-04-23T14:18:54.959Z,18.80
2023-04-23T14:21:22.458Z,18.70
2023-04-23T14:24:07.603Z,18.70
2023-04-23T14:29:31.316Z,18.50
2023-04-23T14:31:57.911Z,18.40
2023-04-23T14:34:24.590Z,18.30
2023-04-23T14:36:51.926Z,18.30
2023-04-23T14:39:18.821Z,18.30
2023-04-23T14:41:45.670Z,18.30
2023-04-23T14:44:12.284Z,18.50
2023-04-23T14:46:38.964Z,18.60
2023-04-23T14:49:05.577Z,18.70
2023-04-23T14:51:32.229Z,18.60
2023-04-23T14:53:58.829Z,18.50
2023-04-23T14:56:25.415Z,18.40
2023-04-23T14:58:51.978Z,18.50
2023-04-23T15:01:18.943Z,18.30
2023-04-23T15:03:45.850Z,18.30
2023-04-23T15:06:12.886Z,18.20
2023-04-23T15:08:39.429Z,18.00
2023-04-23T15:11:06.209Z,18.10
2023-04-23T15:13:35.467Z,17.90
2023-04-23T15:16:03.632Z,18.10
2023-04-23T15:18:30.215Z,18.10
2023-04-23T15:20:56.772Z,18.10
2023-04-23T15:23:23.332Z,18.10
2023-04-23T15:25:51.011Z,18.00
2023-04-23T15:28:18.066Z,17.90
2023-04-23T15:30:44.672Z,17.90
2023-04-23T15:33:11.437Z,17.80
2023-04-23T15:35:37.980Z,18.00
2023-04-23T15:38:04.557Z,17.80
2023-04-23T15:40:31.543Z,17.70
2023-04-23T15:42:58.888Z,17.70
2023-04-23T15:45:25.440Z,17.70
2023-04-23T15:47:52.009Z,17.60
2023-04-23T15:50:18.604Z,17.50
2023-04-23T15:52:45.200Z,17.50
2023-04-23T15:55:11.796Z,17.50
2023-04-23T15:57:38.358Z,17.50
2023-04-23T16:00:05.551Z,17.50
2023-04-23T16:02:32.160Z,17.50
2023-04-23T16:04:58.856Z,17.50
2023-04-23T16:07:25.502Z,17.40
2023-04-23T16:09:52.075Z,17.40
2023-04-23T16:12:18.670Z,17.40
2023-04-23T16:14:45.631Z,17.50
2023-04-23T16:17:12.300Z,17.50
2023-04-23T16:19:38.954Z,17.40
2023-04-23T16:22:05.526Z,17.50
2023-04-23T16:24:32.113Z,17.60
2023-04-23T16:26:58.874Z,17.50
2023-04-23T16:29:25.589Z,17.50
2023-04-23T16:31:52.130Z,17.50
2023-04-23T16:34:18.727Z,17.50
2023-04-23T16:36:45.401Z,17.50
2023-04-23T16:39:12.078Z,17.50
2023-04-23T16:41:38.638Z,17.40
2023-04-23T16:44:05.344Z,17.40
2023-04-23T16:46:32.272Z,17.30
2023-04-23T16:48:59.186Z,17.30
2023-04-23T16:51:26.385Z,17.30
2023-04-23T16:53:53.111Z,17.20
2023-04-23T16:56:20.260Z,17.20
2023-04-23T16:58:46.906Z,17.20
2023-04-23T17:01:13.561Z,17.20
2023-04-23T17:03:40.268Z,17.10
2023-04-23T17:06:11.219Z,17.10
2023-04-23T17:08:38.738Z,17.20
2023-04-23T17:11:06.452Z,17.20
2023-04-23T17:13:33.398Z,17.20
2023-04-23T17:16:00.064Z,17.20
2023-04-23T17:18:26.802Z,17.10
2023-04-23T17:20:53.906Z,17.00
2023-04-23T17:23:20.563Z,16.90
2023-04-23T17:25:47.123Z,16.90
2023-04-23T17:28:13.709Z,16.80
2023-04-23T17:30:40.377Z,16.70
2023-04-23T17:33:07.107Z,16.60
2023-04-23T17:35:33.743Z,16.70
2023-04-23T17:38:00.295Z,16.60
2023-04-23T17:40:26.902Z,16.50
2023-04-23T17:42:53.516Z,16.50
2023-04-23T17:45:20.084Z,16.50
2023-04-23T17:47:46.690Z,16.40
2023-04-23T17:50:13.258Z,16.40
2023-04-23T17:52:39.881Z,16.40
2023-04-23T17:55:07.541Z,16.40
2023-04-23T17:57:34.690Z,16.40
2023-04-23T18:00:01.653Z,16.30
2023-04-23T18:02:28.378Z,16.20
2023-04-23T18:04:55.121Z,16.20
2023-04-23T18:07:21.742Z,16.20
2023-04-23T18:09:48.656Z,16.00
2023-04-23T18:12:15.785Z,15.90
2023-04-23T18:14:42.397Z,15.90
2023-04-23T18:17:09.015Z,15.80
2023-04-23T18:19:35.741Z,15.50
2023-04-23T18:22:02.326Z,14.30
2023-04-23T18:24:28.971Z,13.30
2023-04-23T18:26:55.597Z,12.50
2023-04-23T18:29:22.207Z,12.20
2023-04-23T18:31:48.766Z,12.30
2023-04-23T18:34:19.605Z,12.30
2023-04-23T18:36:49.628Z,12.30
2023-04-23T18:39:16.497Z,12.20
2023-04-23T18:41:43.419Z,12.20
2023-04-23T18:44:10.269Z,12.20
2023-04-23T18:46:36.874Z,12.30
2023-04-23T18:49:34.229Z,12.30
2023-04-23T18:52:00.822Z,12.30
2023-04-23T18:54:27.682Z,12.40
2023-04-23T18:56:54.257Z,12.30
2023-04-23T18:59:20.829Z,12.20
2023-04-23T19:01:47.583Z,12.30
2023-04-23T19:04:17.141Z,12.20
2023-04-23T19:06:43.879Z,12.10
2023-04-23T19:09:10.493Z,12.00
2023-04-23T19:11:37.082Z,11.80
2023-04-23T19:14:04.382Z,11.80
2023-04-23T19:16:31.051Z,11.70
2023-04-23T19:18:57.849Z,11.80
2023-04-23T19:21:24.530Z,11.70
2023-04-23T19:23:51.153Z,11.70
2023-04-23T19:26:17.769Z,11.70
2023-04-23T19:28:44.328Z,11.70
2023-04-23T19:31:10.977Z,11.60
2023-04-23T19:33:37.571Z,11.60
2023-04-23T19:36:04.266Z,11.60
2023-04-23T19:38:30.820Z,11.30
2023-04-23T19:40:57.359Z,11.20
2023-04-23T19:43:23.908Z,11.20
2023-04-23T19:45:50.490Z,11.20
2023-04-23T19:48:17.125Z,11.20
2023-04-23T19:50:43.688Z,11.20
2023-04-23T19:53:10.294Z,11.20
2023-04-23T19:55:36.863Z,11.20
2023-04-23T19:58:03.435Z,11.10
2023-04-23T20:00:30.000Z,11.10
2023-04-23T20:02:56.718Z,11.20
2023-04-23T20:05:23.463Z,11.20
2023-04-23T20:07:50.036Z,11.20
2023-04-23T20:10:17.618Z,11.30
2023-04-23T20:12:44.384Z,11.20
2023-04-23T20:15:11.356Z,11.20
2023-04-23T20:17:38.328Z,11.30
2023-04-23T20:20:05.619Z,11.20
2023-04-23T20:22:33.452Z,11.30
2023-04-23T20:25:00.047Z,11.30
2023-04-23T20:27:26.656Z,11.40
2023-04-23T20:29:53.370Z,11.30
2023-04-23T20:32:20.072Z,11.30
2023-04-23T20:34:46.687Z,11.40
2023-04-23T20:37:13.289Z,11.40
2023-04-23T20:39:40.100Z,11.40
2023-04-23T20:42:06.871Z,11.40
2023-04-23T20:44:33.441Z,11.40
2023-04-23T20:47:00.076Z,11.40
2023-04-23T20:49:26.673Z,11.40
2023-04-23T20:51:53.517Z,11.30
2023-04-23T20:54:20.061Z,11.40
2023-04-23T20:56:46.590Z,11.30
2023-04-23T20:59:13.249Z,11.40
2023-04-23T21:01:39.929Z,11.40
2023-04-23T21:04:06.738Z,11.40
2023-04-23T21:06:33.512Z,11.40
2023-04-23T21:09:00.121Z,11.40
2023-04-23T21:11:26.662Z,11.40
2023-04-23T21:13:53.414Z,11.40
2023-04-23T21:16:20.142Z,11.40
2023-04-23T21:18:46.756Z,11.40
2023-04-23T21:21:13.310Z,11.50
2023-04-23T21:23:39.884Z,11.40
2023-04-23T21:26:06.801Z,11.50
2023-04-23T21:28:33.583Z,11.50
2023-04-23T21:31:13.656Z,11.40
2023-04-23T21:33:40.308Z,11.40
2023-04-23T21:36:07.078Z,11.40
2023-04-23T21:38:33.653Z,11.40
2023-04-23T21:41:00.346Z,11.30
2023-04-23T21:43:26.978Z,11.30
2023-04-23T21:45:54.406Z,11.30
2023-04-23T21:48:20.944Z,11.30
2023-04-23T21:50:47.510Z,11.30
2023-04-23T21:53:14.071Z,11.20
2023-04-23T21:55:40.654Z,11.20
2023-04-23T21:58:17.309Z,11.20
2023-04-23T22:00:45.598Z,11.20
2023-04-23T22:03:13.611Z,11.20
2023-04-23T22:05:46.623Z,11.10
2023-04-23T22:08:13.199Z,11.10
2023-04-23T22:10:39.781Z,11.10
2023-04-23T22:13:06.373Z,11.10
2023-04-23T22:15:32.922Z,11.10
2023-04-23T22:17:59.565Z,11.10
2023-04-23T22:20:26.510Z,11.10
2023-04-23T22:22:53.049Z,11.10
2023-04-23T22:25:19.587Z,11.00
2023-04-23T22:27:46.175Z,11.10
2023-04-23T22:30:13.357Z,11.10
2023-04-23T22:32:40.212Z,11.00
2023-04-23T22:35:07.954Z,11.00
2023-04-23T22:37:35.226Z,11.00
2023-04-23T22:40:02.564Z,11.10
2023-04-23T22:42:29.193Z,11.00
2023-04-23T22:44:55.800Z,11.00
2023-04-23T22:47:22.434Z,11.00
2023-04-23T22:49:49.056Z,10.90
2023-04-23T22:52:15.621Z,10.90
2023-04-23T22:54:42.736Z,10.90
2023-04-23T22:57:10.199Z,10.90
2023-04-23T22:59:37.905Z,10.90
2023-04-23T23:02:04.466Z,10.90
2023-04-23T23:04:31.054Z,10.90
2023-04-23T23:06:57.660Z,10.90
2023-04-23T23:09:24.235Z,10.90
2023-04-23T23:11:50.853Z,10.80
2023-04-23T23:14:18.045Z,10.80
2023-04-23T23:16:44.576Z,10.90
2023-04-23T23:19:11.274Z,10.80
2023-04-23T23:21:38.104Z,10.80
2023-04-23T23:24:05.102Z,10.80
2023-04-23T23:26:31.767Z,10.80
2023-04-23T23:28:58.311Z,10.80
2023-04-23T23:31:24.908Z,10.70
2023-04-23T23:33:52.578Z,10.70
2023-04-23T23:36:19.187Z,10.70
2023-04-23T23:38:45.746Z,10.70
2023-04-23T23:41:12.348Z,10.70
2023-04-23T23:43:38.865Z,10.70
2023-04-23T23:46:05.576Z,10.70
2023-04-23T23:48:32.453Z,10.60
2023-04-23T23:50:59.153Z,10.70
2023-04-23T23:53:25.705Z,10.60
2023-04-23T23:55:52.247Z,10.60
2023-04-23T23:58:18.797Z,10.60
